createdAt,value
2018-07-08T00:01:30.823Z,18.90
2018-07-08T00:03:59.076Z,18.80
2018-07-08T00:06:30.370Z,18.80
2018-07-08T00:08:58.656Z,18.80
2018-07-08T00:11:26.928Z,18.80
2018-07-08T00:13:55.218Z,18.80
2018-07-08T00:16:23.493Z,18.80
2018-07-08T00:18:51.761Z,18.90
2018-07-08T00:21:20.054Z,18.80
2018-07-08T00:23:48.313Z,18.80
2018-07-08T00:26:16.594Z,18.60
2018-07-08T00:28:44.833Z,18.50
2018-07-08T00:31:13.107Z,18.50
2018-07-08T00:33:41.358Z,18.40
2018-07-08T00:36:09.599Z,18.30
2018-07-08T00:38:37.870Z,18.40
2018-07-08T00:41:06.216Z,18.40
2018-07-08T00:43:34.453Z,18.20
2018-07-08T00:46:02.749Z,18.10
2018-07-08T00:48:30.988Z,18.10
2018-07-08T00:50:59.259Z,18.10
2018-07-08T00:53:27.519Z,18.00
2018-07-08T00:55:55.791Z,18.00
2018-07-08T00:58:24.055Z,17.90
2018-07-08T01:00:52.323Z,17.90
2018-07-08T01:03:20.564Z,17.80
2018-07-08T01:08:16.826Z,17.80
2018-07-08T01:10:45.070Z,17.70
2018-07-08T01:13:13.352Z,17.70
2018-07-08T01:15:41.600Z,17.70
2018-07-08T01:18:09.885Z,17.70
2018-07-08T01:20:38.136Z,17.70
2018-07-08T01:23:06.408Z,17.80
2018-07-08T01:25:46.049Z,17.70
2018-07-08T01:28:14.322Z,17.60
2018-07-08T01:30:42.568Z,17.50
2018-07-08T01:33:10.835Z,17.50
2018-07-08T01:35:39.086Z,17.40
2018-07-08T01:38:07.346Z,17.40
2018-07-08T01:40:35.592Z,17.40
2018-07-08T01:43:03.841Z,17.30
2018-07-08T01:45:32.094Z,17.30
2018-07-08T01:48:00.351Z,17.30
2018-07-08T01:50:28.604Z,17.30
2018-07-08T01:52:56.857Z,17.40
2018-07-08T01:55:25.257Z,17.40
2018-07-08T01:57:53.547Z,17.30
2018-07-08T02:00:21.811Z,17.30
2018-07-08T02:02:50.073Z,17.30
2018-07-08T02:05:18.348Z,17.30
2018-07-08T02:07:46.634Z,17.20
2018-07-08T02:10:14.916Z,17.20
2018-07-08T02:12:43.161Z,17.10
2018-07-08T02:15:11.430Z,17.10
2018-07-08T02:17:39.718Z,17.00
2018-07-08T02:20:08.225Z,17.10
2018-07-08T02:22:36.509Z,17.10
2018-07-08T02:25:05.022Z,17.10
2018-07-08T02:27:33.292Z,17.00
2018-07-08T02:30:01.580Z,16.90
2018-07-08T02:32:29.903Z,16.90
2018-07-08T02:34:58.170Z,17.00
2018-07-08T02:37:26.800Z,16.90
2018-07-08T02:39:55.096Z,17.00
2018-07-08T02:42:23.425Z,17.00
2018-07-08T02:44:51.730Z,16.80
2018-07-08T02:47:19.998Z,16.70
2018-07-08T02:49:48.877Z,16.70
2018-07-08T02:52:17.767Z,16.60
2018-07-08T02:54:46.078Z,16.70
2018-07-08T02:57:14.429Z,16.60
2018-07-08T02:59:42.695Z,16.80
2018-07-08T03:02:10.965Z,16.80
2018-07-08T03:04:39.228Z,16.70
2018-07-08T03:07:07.573Z,16.70
2018-07-08T03:09:35.852Z,16.50
2018-07-08T03:12:04.137Z,16.50
2018-07-08T03:14:32.403Z,16.50
2018-07-08T03:17:00.696Z,16.50
2018-07-08T03:19:28.963Z,16.40
2018-07-08T03:21:57.261Z,16.40
2018-07-08T03:24:25.500Z,16.50
2018-07-08T03:26:53.762Z,16.50
2018-07-08T03:29:22.079Z,16.60
2018-07-08T03:31:50.334Z,16.60
2018-07-08T03:34:18.587Z,16.40
2018-07-08T03:36:46.833Z,16.40
2018-07-08T03:39:15.143Z,16.30
2018-07-08T03:41:43.404Z,16.30
2018-07-08T03:44:11.741Z,16.30
2018-07-08T03:46:40.039Z,16.30
2018-07-08T03:49:08.286Z,16.20
2018-07-08T03:51:36.542Z,16.20
2018-07-08T03:54:10.276Z,16.30
2018-07-08T03:56:38.555Z,16.30
2018-07-08T03:59:06.823Z,16.20
2018-07-08T04:01:35.085Z,16.20
2018-07-08T04:04:03.366Z,16.10
2018-07-08T04:06:31.629Z,16.10
2018-07-08T04:08:59.878Z,16.10
2018-07-08T04:11:28.162Z,16.30
2018-07-08T04:13:56.441Z,16.40
2018-07-08T04:16:25.386Z,16.50
2018-07-08T04:18:53.661Z,16.50
2018-07-08T04:21:21.914Z,16.50
2018-07-08T04:23:50.170Z,16.50
2018-07-08T04:26:18.470Z,16.50
2018-07-08T04:28:46.768Z,16.50
2018-07-08T04:31:15.092Z,16.50
2018-07-08T04:33:43.368Z,16.50
2018-07-08T04:36:11.645Z,16.40
2018-07-08T04:38:39.887Z,16.40
2018-07-08T04:43:36.136Z,16.50
2018-07-08T04:46:04.433Z,16.50
2018-07-08T04:48:32.705Z,16.60
2018-07-08T04:51:00.997Z,16.70
2018-07-08T04:53:29.245Z,16.80
2018-07-08T04:55:57.494Z,16.90
2018-07-08T04:58:25.737Z,17.00
2018-07-08T05:00:54.038Z,17.00
2018-07-08T05:03:22.267Z,16.90
2018-07-08T05:05:50.522Z,16.90
2018-07-08T05:08:18.754Z,16.80
2018-07-08T05:10:47.017Z,16.90
2018-07-08T05:13:15.280Z,16.90
2018-07-08T05:15:43.545Z,17.00
2018-07-08T05:18:11.802Z,17.00
2018-07-08T05:20:40.029Z,17.00
2018-07-08T05:23:08.276Z,17.10
2018-07-08T05:25:36.536Z,17.10
2018-07-08T05:28:04.852Z,17.20
2018-07-08T05:30:33.102Z,17.30
2018-07-08T05:33:01.375Z,17.30
2018-07-08T05:35:29.604Z,17.40
2018-07-08T05:37:57.849Z,17.50
2018-07-08T05:40:26.112Z,17.60
2018-07-08T05:42:54.357Z,17.70
2018-07-08T05:45:22.629Z,17.80
2018-07-08T05:47:50.889Z,17.90
2018-07-08T05:50:19.236Z,18.10
2018-07-08T05:52:47.395Z,18.10
2018-07-08T05:55:15.662Z,18.20
2018-07-08T05:57:43.948Z,18.30
2018-07-08T06:00:12.962Z,18.40
2018-07-08T06:02:41.297Z,18.50
2018-07-08T06:05:09.706Z,18.50
2018-07-08T06:07:38.090Z,18.60
2018-07-08T06:10:06.871Z,18.70
2018-07-08T06:12:35.243Z,18.80
2018-07-08T06:15:03.595Z,18.80
2018-07-08T06:17:31.997Z,18.90
2018-07-08T06:20:00.338Z,19.00
2018-07-08T06:22:28.714Z,19.10
2018-07-08T06:24:56.998Z,19.20
2018-07-08T06:27:25.313Z,19.20
2018-07-08T06:29:53.629Z,19.40
2018-07-08T06:32:21.941Z,19.60
2018-07-08T06:34:50.269Z,19.70
2018-07-08T06:37:18.595Z,19.80
2018-07-08T06:39:46.871Z,20.00
2018-07-08T06:44:47.190Z,21.20
2018-07-08T06:47:15.735Z,21.90
2018-07-08T06:49:44.853Z,22.50
2018-07-08T06:52:13.101Z,23.10
2018-07-08T06:54:42.006Z,23.60
2018-07-08T06:57:10.420Z,24.00
2018-07-08T06:59:38.957Z,24.00
2018-07-08T07:02:07.407Z,24.00
2018-07-08T07:04:35.897Z,24.00
2018-07-08T07:07:04.480Z,23.90
2018-07-08T07:09:33.056Z,23.90
2018-07-08T07:12:01.292Z,23.90
2018-07-08T07:14:29.605Z,24.00
2018-07-08T07:16:57.864Z,24.10
2018-07-08T07:19:26.069Z,24.10
2018-07-08T07:21:54.307Z,24.10
2018-07-08T07:24:22.956Z,24.00
2018-07-08T07:26:51.139Z,24.10
2018-07-08T07:29:19.457Z,23.90
2018-07-08T07:31:48.679Z,24.00
2018-07-08T07:34:16.903Z,23.80
2018-07-08T07:36:45.119Z,23.70
2018-07-08T07:39:13.328Z,23.70
2018-07-08T07:41:41.514Z,23.90
2018-07-08T07:44:09.861Z,23.90
2018-07-08T07:46:38.094Z,23.90
2018-07-08T07:49:06.292Z,23.90
2018-07-08T07:51:36.226Z,24.00
2018-07-08T07:54:04.693Z,24.20
2018-07-08T07:56:33.053Z,24.40
2018-07-08T07:59:01.516Z,24.50
2018-07-08T08:01:29.949Z,24.90
2018-07-08T08:03:58.342Z,25.30
2018-07-08T08:06:26.851Z,25.80
2018-07-08T08:08:55.397Z,26.30
2018-07-08T08:11:25.039Z,26.70
2018-07-08T08:14:01.831Z,26.90
2018-07-08T08:18:58.722Z,27.50
2018-07-08T08:21:27.269Z,27.80
2018-07-08T08:23:57.012Z,28.10
2018-07-08T08:26:26.791Z,28.20
2018-07-08T08:28:55.191Z,28.50
2018-07-08T08:31:23.542Z,28.70
2018-07-08T08:35:02.537Z,28.70
2018-07-08T08:37:32.311Z,28.90
2018-07-08T08:40:07.665Z,29.00
2018-07-08T08:42:37.057Z,29.00
2018-07-08T08:45:07.210Z,29.30
2018-07-08T08:47:35.683Z,29.40
2018-07-08T08:50:13.762Z,29.20
2018-07-08T08:52:42.286Z,29.30
2018-07-08T08:55:12.215Z,29.50
2018-07-08T08:57:40.798Z,29.50
2018-07-08T09:00:12.480Z,29.60
2018-07-08T09:02:45.885Z,29.60
2018-07-08T09:05:25.434Z,29.60
2018-07-08T09:07:56.050Z,29.60
2018-07-08T09:13:41.646Z,29.60
2018-07-08T09:16:29.834Z,29.70
2018-07-08T09:18:58.439Z,29.60
2018-07-08T09:21:28.482Z,29.60
2018-07-08T09:23:57.121Z,29.60
2018-07-08T09:26:25.816Z,29.50
2018-07-08T09:28:58.686Z,29.50
2018-07-08T09:31:27.702Z,29.60
2018-07-08T09:39:42.398Z,29.70
2018-07-08T09:42:10.735Z,29.70
2018-07-08T09:44:42.225Z,29.80
2018-07-08T09:49:45.920Z,29.90
2018-07-08T09:52:14.526Z,29.60
2018-07-08T09:54:43.049Z,29.70
2018-07-08T09:57:11.489Z,29.80
2018-07-08T09:59:40.061Z,30.00
2018-07-08T10:02:08.591Z,30.00
2018-07-08T10:04:37.023Z,30.00
2018-07-08T10:07:06.426Z,30.30
2018-07-08T10:09:34.950Z,30.20
2018-07-08T10:15:02.186Z,30.40
2018-07-08T10:17:30.723Z,30.40
2018-07-08T10:20:01.300Z,30.40
2018-07-08T10:22:29.766Z,30.40
2018-07-08T10:24:58.270Z,30.50
2018-07-08T10:28:31.605Z,30.50
2018-07-08T10:33:56.974Z,30.70
2018-07-08T10:36:25.301Z,30.90
2018-07-08T10:38:53.545Z,30.80
2018-07-08T10:41:22.938Z,30.80
2018-07-08T10:43:52.830Z,31.10
2018-07-08T10:46:22.807Z,31.30
2018-07-08T10:48:52.107Z,31.20
2018-07-08T10:51:22.854Z,31.30
2018-07-08T10:53:51.912Z,31.10
2018-07-08T10:56:21.354Z,31.20
2018-07-08T10:58:50.850Z,31.30
2018-07-08T11:01:20.112Z,31.50
2018-07-08T11:03:49.198Z,31.60
2018-07-08T11:06:17.925Z,31.30
2018-07-08T11:08:46.717Z,31.20
2018-07-08T11:11:17.525Z,31.10
2018-07-08T11:13:47.336Z,31.00
2018-07-08T11:16:16.391Z,30.70
2018-07-08T11:18:45.451Z,30.60
2018-07-08T11:21:14.393Z,30.70
2018-07-08T11:23:43.356Z,30.70
2018-07-08T11:26:16.791Z,30.60
2018-07-08T11:28:48.442Z,30.50
2018-07-08T11:31:17.644Z,30.40
2018-07-08T11:36:55.509Z,30.10
2018-07-08T11:39:27.862Z,30.00
2018-07-08T11:41:56.988Z,30.00
2018-07-08T11:44:27.676Z,29.90
2018-07-08T11:46:59.479Z,29.50
2018-07-08T11:49:29.241Z,29.50
2018-07-08T11:51:59.145Z,29.50
2018-07-08T11:54:29.895Z,29.50
2018-07-08T11:56:58.561Z,29.30
2018-07-08T11:59:27.324Z,29.20
2018-07-08T12:01:55.663Z,29.10
2018-07-08T12:04:23.975Z,28.90
2018-07-08T12:06:52.284Z,29.00
2018-07-08T12:09:20.614Z,28.90
2018-07-08T12:11:48.885Z,28.80
2018-07-08T12:14:17.184Z,28.80
2018-07-08T12:16:45.487Z,28.70
2018-07-08T12:19:13.902Z,28.50
2018-07-08T12:21:42.237Z,28.50
2018-07-08T12:24:10.548Z,28.40
2018-07-08T12:26:38.857Z,28.40
2018-07-08T12:29:08.056Z,28.40
2018-07-08T12:31:37.029Z,28.30
2018-07-08T12:34:06.898Z,28.30
2018-07-08T12:36:35.882Z,28.20
2018-07-08T12:39:07.316Z,28.20
2018-07-08T12:41:36.458Z,28.20
2018-07-08T12:44:05.567Z,28.10
2018-07-08T12:49:07.858Z,27.90
2018-07-08T12:51:38.890Z,27.80
2018-07-08T12:54:07.653Z,27.80
2018-07-08T12:56:36.440Z,27.70
2018-07-08T12:59:05.513Z,27.70
2018-07-08T13:01:34.329Z,27.60
2018-07-08T13:04:02.744Z,27.60
2018-07-08T13:06:31.114Z,27.50
2018-07-08T13:08:59.387Z,27.50
2018-07-08T13:11:27.696Z,27.60
2018-07-08T13:13:55.977Z,27.60
2018-07-08T13:16:24.299Z,27.50
2018-07-08T13:18:52.597Z,27.50
2018-07-08T13:21:20.877Z,27.50
2018-07-08T13:23:49.154Z,27.50
2018-07-08T13:26:17.556Z,27.50
2018-07-08T13:28:45.793Z,27.40
2018-07-08T13:31:14.137Z,27.50
2018-07-08T13:33:42.529Z,27.40
2018-07-08T13:36:10.872Z,27.40
2018-07-08T13:38:39.104Z,27.40
2018-07-08T13:41:09.200Z,27.30
2018-07-08T13:43:42.924Z,27.30
2018-07-08T13:46:14.294Z,27.30
2018-07-08T13:48:43.031Z,27.20
2018-07-08T13:51:27.607Z,27.00
2018-07-08T13:53:59.882Z,27.00
2018-07-08T13:56:29.108Z,26.90
2018-07-08T13:59:00.420Z,26.90
2018-07-08T14:01:29.351Z,26.90
2018-07-08T14:03:59.284Z,26.90
2018-07-08T14:06:29.472Z,26.90
2018-07-08T14:08:58.016Z,26.90
2018-07-08T14:11:26.556Z,26.90
2018-07-08T14:13:55.829Z,26.80
2018-07-08T14:16:25.220Z,26.80
2018-07-08T14:18:53.864Z,26.80
2018-07-08T14:21:23.511Z,26.80
2018-07-08T14:23:54.369Z,26.90
2018-07-08T14:26:23.024Z,26.80
2018-07-08T14:28:51.704Z,26.80
2018-07-08T14:31:26.971Z,26.80
2018-07-08T14:33:55.533Z,26.80
2018-07-08T14:36:24.032Z,26.80
2018-07-08T14:38:52.608Z,26.70
2018-07-08T14:41:21.185Z,26.70
2018-07-08T14:43:50.097Z,26.70
2018-07-08T14:46:18.786Z,26.70
2018-07-08T14:48:47.301Z,26.70
2018-07-08T14:51:15.902Z,26.70
2018-07-08T14:53:44.521Z,26.70
2018-07-08T14:56:13.214Z,26.70
2018-07-08T14:58:41.929Z,26.70
2018-07-08T15:01:10.576Z,26.70
2018-07-08T15:03:39.206Z,26.70
2018-07-08T15:11:05.352Z,26.80
2018-07-08T15:13:33.997Z,26.80
2018-07-08T15:16:10.216Z,26.80
2018-07-08T15:18:38.813Z,26.70
2018-07-08T15:21:07.383Z,26.80
2018-07-08T15:23:35.932Z,26.70
2018-07-08T15:26:04.630Z,26.70
2018-07-08T15:28:33.362Z,26.60
2018-07-08T15:31:01.848Z,26.60
2018-07-08T15:33:30.431Z,26.60
2018-07-08T15:35:59.132Z,26.60
2018-07-08T15:38:28.183Z,26.60
2018-07-08T15:43:25.254Z,26.50
2018-07-08T15:48:23.961Z,26.50
2018-07-08T15:50:52.560Z,26.50
2018-07-08T15:53:21.293Z,26.40
2018-07-08T15:55:49.959Z,26.40
2018-07-08T15:58:18.599Z,26.40
2018-07-08T16:00:47.221Z,26.40
2018-07-08T16:03:15.773Z,26.50
2018-07-08T16:05:45.736Z,26.50
2018-07-08T16:08:14.353Z,26.50
2018-07-08T16:10:44.085Z,26.50
2018-07-08T16:13:17.404Z,26.50
2018-07-08T16:15:47.893Z,26.40
2018-07-08T16:20:44.928Z,26.40
2018-07-08T16:23:13.763Z,26.40
2018-07-08T16:25:47.116Z,26.40
2018-07-08T16:28:15.589Z,26.30
2018-07-08T16:30:44.030Z,26.30
2018-07-08T16:33:13.045Z,26.30
2018-07-08T16:35:45.107Z,26.30
2018-07-08T16:38:21.499Z,26.30
2018-07-08T16:40:50.691Z,26.20
2018-07-08T16:43:19.186Z,26.20
2018-07-08T16:45:48.208Z,26.20
2018-07-08T16:48:16.726Z,26.20
2018-07-08T16:53:26.879Z,26.30
2018-07-08T16:55:56.361Z,26.20
2018-07-08T16:58:24.949Z,26.10
2018-07-08T17:00:53.526Z,26.20
2018-07-08T17:03:23.962Z,26.10
2018-07-08T17:05:58.155Z,26.10
2018-07-08T17:08:26.619Z,26.10
2018-07-08T17:10:55.706Z,26.10
2018-07-08T17:13:24.285Z,26.10
2018-07-08T17:15:52.823Z,26.10
2018-07-08T17:18:21.449Z,26.00
2018-07-08T17:20:50.210Z,26.00
2018-07-08T17:23:19.266Z,26.00
2018-07-08T17:25:48.748Z,26.10
2018-07-08T17:28:17.468Z,26.00
2018-07-08T17:30:46.086Z,26.00
2018-07-08T17:33:15.473Z,25.90
2018-07-08T17:35:43.924Z,25.90
2018-07-08T17:38:13.395Z,25.90
2018-07-08T17:40:42.757Z,25.90
2018-07-08T17:43:11.129Z,25.90
2018-07-08T17:45:39.649Z,26.00
2018-07-08T17:48:08.116Z,26.00
2018-07-08T17:50:36.582Z,25.90
2018-07-08T17:55:34.069Z,25.80
2018-07-08T17:58:02.591Z,25.70
2018-07-08T18:00:31.097Z,25.70
2018-07-08T18:02:59.664Z,25.60
2018-07-08T18:05:28.210Z,25.60
2018-07-08T18:08:04.272Z,25.50
2018-07-08T18:13:22.231Z,25.40
2018-07-08T18:15:50.838Z,25.30
2018-07-08T18:18:21.757Z,25.20
2018-07-08T18:20:50.354Z,25.20
2018-07-08T18:23:18.962Z,25.10
2018-07-08T18:25:47.416Z,25.10
2018-07-08T18:28:15.905Z,25.10
2018-07-08T18:30:51.175Z,25.10
2018-07-08T18:33:19.750Z,25.00
2018-07-08T18:35:48.470Z,25.00
2018-07-08T18:38:17.287Z,24.90
2018-07-08T18:40:45.819Z,24.80
2018-07-08T18:43:14.412Z,24.80
2018-07-08T18:45:43.001Z,24.70
2018-07-08T18:48:11.656Z,24.70
2018-07-08T18:50:40.080Z,24.60
2018-07-08T18:53:08.396Z,24.60
2018-07-08T18:55:40.809Z,24.50
2018-07-08T18:58:09.347Z,24.40
2018-07-08T19:00:38.039Z,24.30
2018-07-08T19:03:07.045Z,24.30
2018-07-08T19:05:44.066Z,24.20
2018-07-08T19:13:34.546Z,24.10
2018-07-08T19:16:04.243Z,24.00
2018-07-08T19:18:32.870Z,24.00
2018-07-08T19:21:01.503Z,23.90
2018-07-08T19:23:30.386Z,23.70
2018-07-08T19:25:59.067Z,23.60
2018-07-08T19:28:27.774Z,23.50
2018-07-08T19:30:56.543Z,23.50
2018-07-08T19:33:26.346Z,23.50
2018-07-08T19:35:55.001Z,23.40
2018-07-08T19:38:32.124Z,23.30
2018-07-08T19:41:00.716Z,23.40
2018-07-08T19:43:29.395Z,23.10
2018-07-08T19:45:58.123Z,23.00
2018-07-08T19:48:27.332Z,22.90
2018-07-08T19:50:55.951Z,22.80
2018-07-08T19:53:24.652Z,22.80
2018-07-08T19:55:53.394Z,22.50
2018-07-08T19:58:22.006Z,22.40
2018-07-08T20:03:47.640Z,22.20
2018-07-08T20:09:28.258Z,22.10
2018-07-08T20:11:59.585Z,21.90
2018-07-08T20:15:56.815Z,21.90
2018-07-08T20:24:52.666Z,21.50
2018-07-08T20:27:23.262Z,21.30
2018-07-08T20:30:12.896Z,21.20
2018-07-08T20:35:19.673Z,21.10
2018-07-08T20:37:50.596Z,21.10
2018-07-08T20:40:19.198Z,21.10
2018-07-08T20:42:47.942Z,21.00
2018-07-08T20:45:16.464Z,21.00
2018-07-08T20:47:45.746Z,21.00
2018-07-08T20:50:14.710Z,21.00
